Time;durP1;ratioP1;P1;durP2;ratioP2;P2;SDS_P1;SDS_P2;PMS_P1;PMS_P2;Temp;Humidity;BMP_temperature;BMP_pressure;BME280_temperature;BME280_humidity;BME280_pressure;Samples;Min_cycle;Max_cycle;Signal;HPM_P1;HPM_P2
2023/04/08 00:01:01;;;;;;;14.33;10.50;;;4.00;99.90;;;;;;5050609;28;20047;-74
2023/04/08 00:03:26;;;;;;;16.27;10.60;;;4.00;99.90;;;;;;5055117;28;20103;-74
2023/04/08 00:05:52;;;;;;;13.37;10.67;;;4.00;99.90;;;;;;5055102;28;20044;-74
2023/04/08 00:08:17;;;;;;;13.97;9.87;;;4.00;99.90;;;;;;5054675;28;20020;-74
2023/04/08 00:10:43;;;;;;;13.70;10.37;;;4.00;99.90;;;;;;5054396;28;20021;-74
2023/04/08 00:13:09;;;;;;;15.23;10.70;;;3.90;99.90;;;;;;5054531;28;20475;-74
2023/04/08 00:15:35;;;;;;;14.27;11.07;;;3.90;99.90;;;;;;5054240;28;20028;-74
2023/04/08 00:18:01;;;;;;;15.43;11.03;;;3.90;99.90;;;;;;5053699;28;20037;-74
2023/04/08 00:20:26;;;;;;;14.43;10.53;;;3.90;99.90;;;;;;5052494;28;20071;-74
2023/04/08 00:22:52;;;;;;;17.33;10.03;;;3.90;99.90;;;;;;5054908;28;20068;-74
2023/04/08 00:25:17;;;;;;;13.17;9.80;;;3.90;99.90;;;;;;5053998;28;20400;-74
2023/04/08 00:27:43;;;;;;;16.70;9.83;;;3.90;99.90;;;;;;5053571;28;20044;-74
2023/04/08 00:30:09;;;;;;;14.60;10.10;;;3.90;99.90;;;;;;5054866;28;20043;-74
2023/04/08 00:32:35;;;;;;;13.87;9.67;;;3.80;99.90;;;;;;5054454;28;20135;-74
2023/04/08 00:35:01;;;;;;;13.40;9.30;;;3.80;99.90;;;;;;5054601;28;20032;-74
2023/04/08 00:37:27;;;;;;;14.83;9.50;;;3.80;99.90;;;;;;5054532;28;20037;-74
2023/04/08 00:39:53;;;;;;;13.80;10.33;;;3.80;99.90;;;;;;5053132;28;20028;-74
2023/04/08 00:42:19;;;;;;;12.47;9.40;;;3.80;99.90;;;;;;5054059;28;20040;-74
2023/04/08 00:44:45;;;;;;;11.20;9.10;;;3.70;99.90;;;;;;5053771;28;20031;-74
2023/04/08 00:47:12;;;;;;;14.07;9.43;;;3.80;99.90;;;;;;5053239;28;20729;-74
2023/04/08 00:49:38;;;;;;;12.20;8.80;;;3.70;99.90;;;;;;5053526;28;20029;-74
2023/04/08 00:52:03;;;;;;;15.43;9.37;;;3.70;99.90;;;;;;5054278;28;20039;-74
2023/04/08 00:54:30;;;;;;;13.00;9.33;;;3.70;99.90;;;;;;5053640;28;20052;-74
2023/04/08 00:56:58;;;;;;;11.57;8.90;;;3.70;99.90;;;;;;5053875;28;20025;-74
2023/04/08 00:59:24;;;;;;;12.93;8.97;;;3.70;99.90;;;;;;5052832;28;20029;-74
2023/04/08 01:01:55;;;;;;;14.30;9.00;;;3.70;99.90;;;;;;5054295;28;21366;-74
2023/04/08 01:04:37;;;;;;;12.20;8.93;;;3.60;99.90;;;;;;5052881;28;20180;-74
2023/04/08 01:07:14;;;;;;;13.00;9.00;;;3.60;99.90;;;;;;5053375;28;20039;-74
2023/04/08 01:09:45;;;;;;;13.13;9.13;;;3.60;99.90;;;;;;5052578;28;20749;-74
2023/04/08 01:12:13;;;;;;;11.47;8.90;;;3.60;99.90;;;;;;5052808;28;20044;-74
2023/04/08 01:14:42;;;;;;;10.40;8.33;;;3.60;99.90;;;;;;5036436;28;20028;-74
2023/04/08 01:17:09;;;;;;;13.00;8.93;;;3.60;99.90;;;;;;5054463;28;20089;-74
2023/04/08 01:19:38;;;;;;;12.17;8.27;;;3.50;99.90;;;;;;5052326;28;20079;-74
2023/04/08 01:22:28;;;;;;;12.30;8.03;;;3.50;99.90;;;;;;5053969;28;20017;-74
2023/04/08 01:25:03;;;;;;;12.70;8.93;;;3.50;99.90;;;;;;5053133;28;20031;-74
2023/04/08 01:27:30;;;;;;;12.70;8.35;;;3.50;99.90;;;;;;5053231;28;20029;-74
2023/04/08 01:29:58;;;;;;;11.20;8.67;;;3.50;99.90;;;;;;5053305;28;20020;-74
2023/04/08 01:32:26;;;;;;;10.47;8.23;;;3.50;99.90;;;;;;5053520;28;20405;-74
2023/04/08 01:34:53;;;;;;;13.80;8.50;;;3.50;99.90;;;;;;5146918;23;20060;-83
2023/04/08 01:37:19;;;;;;;12.57;9.00;;;3.50;99.90;;;;;;5065702;28;20092;-85
2023/04/08 01:39:46;;;;;;;11.73;8.57;;;3.40;99.90;;;;;;5054496;28;20032;-85
2023/04/08 01:42:13;;;;;;;13.37;8.47;;;3.40;99.90;;;;;;5039198;28;20032;-85
2023/04/08 01:44:39;;;;;;;13.20;8.77;;;3.40;99.90;;;;;;5038422;28;20484;-86
2023/04/08 01:47:05;;;;;;;13.20;8.80;;;3.40;99.90;;;;;;5037371;28;20167;-85
2023/04/08 01:49:32;;;;;;;11.60;9.10;;;3.40;99.90;;;;;;5038626;28;20126;-84
2023/04/08 01:51:59;;;;;;;10.53;8.60;;;3.40;99.90;;;;;;5035563;28;20040;-84
2023/04/08 01:54:25;;;;;;;14.87;10.13;;;3.40;99.90;;;;;;5036831;28;20425;-83
2023/04/08 01:56:53;;;;;;;15.23;9.53;;;3.30;99.90;;;;;;5035135;28;20045;-83
2023/04/08 01:59:20;;;;;;;12.83;9.10;;;3.30;99.90;;;;;;5036897;28;20385;-83
2023/04/08 02:01:47;;;;;;;13.93;8.77;;;3.30;99.90;;;;;;5038216;28;20041;-84
2023/04/08 02:04:13;;;;;;;14.33;9.33;;;3.30;99.90;;;;;;5038916;28;20848;-83
2023/04/08 02:06:38;;;;;;;17.20;9.33;;;3.30;99.90;;;;;;5036468;28;20118;-84
2023/04/08 02:09:04;;;;;;;14.17;9.77;;;3.30;99.90;;;;;;5037224;28;20029;-83
2023/04/08 02:11:30;;;;;;;13.03;9.10;;;3.30;99.90;;;;;;5036770;28;20037;-83
2023/04/08 02:13:57;;;;;;;13.03;9.83;;;3.30;99.90;;;;;;5037873;28;20683;-84
2023/04/08 02:16:33;;;;;;;14.83;10.23;;;3.20;99.90;;;;;;5036468;28;20037;-83
2023/04/08 02:19:16;;;;;;;28.73;12.20;;;3.30;99.90;;;;;;5036933;28;20029;-84
2023/04/08 02:21:47;;;;;;;13.40;10.63;;;3.20;99.90;;;;;;5036921;28;20071;-84
2023/04/08 02:24:14;;;;;;;15.33;10.77;;;3.20;99.90;;;;;;5036693;28;20040;-84
2023/04/08 02:26:42;;;;;;;13.50;10.13;;;3.20;99.90;;;;;;5036041;28;20121;-83
2023/04/08 02:29:11;;;;;;;16.73;10.17;;;3.20;99.90;;;;;;5036064;28;20028;-83
2023/04/08 02:31:41;;;;;;;13.70;10.63;;;3.20;99.90;;;;;;5035692;28;20037;-83
2023/04/08 02:34:09;;;;;;;13.70;10.33;;;3.20;99.90;;;;;;5038216;28;20051;-83
2023/04/08 02:36:36;;;;;;;15.10;10.87;;;3.20;99.90;;;;;;5035682;28;20040;-83
2023/04/08 02:39:02;;;;;;;13.70;10.50;;;3.20;99.90;;;;;;5035419;28;20041;-84
2023/04/08 02:41:29;;;;;;;13.77;10.30;;;3.20;99.90;;;;;;5035023;28;20060;-85
2023/04/08 02:43:54;;;;;;;17.47;11.50;;;3.20;99.90;;;;;;5036366;28;20718;-84
2023/04/08 02:46:20;;;;;;;14.40;10.93;;;3.20;99.90;;;;;;5041659;28;20088;-84
2023/04/08 02:48:46;;;;;;;15.60;12.10;;;3.20;99.90;;;;;;5042362;28;20030;-84
2023/04/08 02:51:12;;;;;;;18.70;11.30;;;3.20;99.90;;;;;;5041860;28;20096;-84
2023/04/08 02:53:39;;;;;;;13.67;10.80;;;3.20;99.90;;;;;;5042111;28;20076;-84
2023/04/08 02:56:05;;;;;;;16.13;10.97;;;3.20;99.90;;;;;;5041498;28;20060;-84
2023/04/08 02:58:30;;;;;;;16.77;11.40;;;3.10;99.90;;;;;;5042878;28;20175;-83
2023/04/08 03:00:56;;;;;;;15.30;10.97;;;3.10;99.90;;;;;;5040535;28;20528;-83
2023/04/08 03:03:28;;;;;;;16.97;11.73;;;3.10;99.90;;;;;;5042026;28;20068;-83
2023/04/08 03:05:55;;;;;;;15.30;12.00;;;3.10;99.90;;;;;;5041461;28;20036;-83
2023/04/08 03:08:22;;;;;;;15.07;11.17;;;3.10;99.90;;;;;;5042104;28;20025;-85
2023/04/08 03:10:48;;;;;;;15.93;11.47;;;3.10;99.90;;;;;;5040755;28;20037;-83
2023/04/08 03:13:14;;;;;;;15.60;12.47;;;3.10;99.90;;;;;;5041511;28;20056;-83
2023/04/08 03:15:40;;;;;;;16.33;12.30;;;3.10;99.90;;;;;;5042543;28;20044;-84
2023/04/08 03:18:06;;;;;;;16.33;12.40;;;3.10;99.90;;;;;;5041193;28;20732;-85
2023/04/08 03:20:32;;;;;;;18.30;12.43;;;3.10;99.90;;;;;;5040303;28;20033;-84
2023/04/08 03:22:57;;;;;;;16.63;12.77;;;3.10;99.90;;;;;;5041522;28;20033;-83
2023/04/08 03:25:23;;;;;;;16.60;13.10;;;3.10;99.90;;;;;;5022729;28;20057;-84
2023/04/08 03:27:48;;;;;;;19.83;13.30;;;3.10;99.90;;;;;;5039950;28;20476;-83
2023/04/08 03:30:14;;;;;;;17.00;12.87;;;3.20;99.90;;;;;;5039320;28;20115;-83
2023/04/08 03:32:40;;;;;;;18.60;13.57;;;3.10;99.90;;;;;;5040791;28;20741;-83
2023/04/08 03:35:05;;;;;;;19.27;13.67;;;3.20;99.90;;;;;;5040786;28;20037;-84
2023/04/08 03:37:31;;;;;;;20.57;13.30;;;3.20;99.90;;;;;;5044643;28;20465;-83
2023/04/08 03:39:57;;;;;;;17.77;13.53;;;3.20;99.90;;;;;;5045853;28;20041;-83
2023/04/08 03:42:22;;;;;;;18.00;13.60;;;3.20;99.90;;;;;;5046055;28;20107;-83
2023/04/08 03:44:48;;;;;;;20.33;14.20;;;3.20;99.90;;;;;;5046812;28;20812;-83
2023/04/08 03:47:14;;;;;;;19.47;14.83;;;3.30;99.90;;;;;;5046815;28;20037;-84
2023/04/08 03:49:39;;;;;;;16.00;13.00;;;3.30;99.90;;;;;;5045379;28;20029;-84
2023/04/08 03:52:05;;;;;;;18.00;14.37;;;3.30;99.90;;;;;;5044219;28;20051;-84
2023/04/08 03:54:31;;;;;;;21.60;14.30;;;3.30;99.90;;;;;;5043970;28;20040;-84
2023/04/08 03:56:56;;;;;;;18.67;13.73;;;3.40;99.90;;;;;;5044646;28;20022;-84
2023/04/08 03:59:22;;;;;;;23.63;14.23;;;3.40;99.90;;;;;;5046307;28;20443;-84
2023/04/08 04:01:48;;;;;;;19.87;14.07;;;3.40;99.90;;;;;;5044219;28;20549;-84
2023/04/08 04:04:13;;;;;;;19.43;15.07;;;3.50;99.90;;;;;;5045292;28;20021;-83
2023/04/08 04:06:39;;;;;;;19.20;14.40;;;3.50;99.90;;;;;;5044728;28;20056;-84
2023/04/08 04:09:05;;;;;;;18.50;14.20;;;3.50;99.90;;;;;;5046762;28;21797;-84
2023/04/08 04:11:32;;;;;;;21.30;15.57;;;3.60;99.90;;;;;;5043536;28;20041;-84
2023/04/08 04:13:58;;;;;;;21.57;15.37;;;3.60;99.90;;;;;;5044771;28;20048;-84
2023/04/08 04:16:24;;;;;;;21.60;15.20;;;3.60;99.90;;;;;;5044451;28;20510;-83
2023/04/08 04:18:51;;;;;;;22.40;16.27;;;3.60;99.90;;;;;;5043767;28;20041;-84
2023/04/08 04:21:18;;;;;;;20.97;14.57;;;3.70;99.90;;;;;;5044567;28;20028;-84
2023/04/08 04:23:46;;;;;;;23.20;17.00;;;3.70;99.90;;;;;;5046627;28;20139;-84
2023/04/08 04:26:12;;;;;;;20.27;16.57;;;3.70;99.90;;;;;;5048739;28;20381;-84
2023/04/08 04:28:38;;;;;;;20.63;15.70;;;3.80;99.90;;;;;;5045532;28;20489;-84
2023/04/08 04:31:04;;;;;;;22.93;16.77;;;3.80;99.90;;;;;;5043340;28;20033;-84
2023/04/08 04:33:30;;;;;;;22.03;17.73;;;3.90;99.90;;;;;;5043535;28;20065;-83
2023/04/08 04:35:56;;;;;;;23.93;17.87;;;3.90;99.90;;;;;;5043182;28;20680;-83
2023/04/08 04:38:21;;;;;;;24.20;17.80;;;3.90;99.90;;;;;;5044873;28;20029;-84
2023/04/08 04:40:50;;;;;;;24.90;18.83;;;4.00;99.90;;;;;;5040919;28;20029;-85
2023/04/08 04:43:15;;;;;;;25.60;19.33;;;4.00;99.90;;;;;;5041691;28;20025;-84
2023/04/08 04:45:43;;;;;;;25.90;19.10;;;4.10;99.90;;;;;;5042649;28;21067;-84
2023/04/08 04:48:09;;;;;;;29.30;19.77;;;4.10;99.90;;;;;;5041116;28;20034;-84
2023/04/08 04:50:35;;;;;;;28.77;19.80;;;4.20;99.90;;;;;;5041565;28;20021;-84
2023/04/08 04:53:00;;;;;;;27.93;19.90;;;4.20;99.90;;;;;;5041653;28;20500;-84
2023/04/08 04:55:26;;;;;;;28.03;19.87;;;4.30;99.90;;;;;;5041234;28;20025;-84
2023/04/08 04:57:51;;;;;;;29.23;19.77;;;4.30;99.90;;;;;;5042079;28;20464;-84
2023/04/08 05:00:17;;;;;;;28.73;20.07;;;4.40;99.90;;;;;;5042336;28;20033;-84
2023/04/08 05:02:42;;;;;;;27.10;19.57;;;4.50;99.90;;;;;;5045775;28;20037;-83
2023/04/08 05:05:08;;;;;;;30.47;20.93;;;4.50;99.90;;;;;;5050820;28;20130;-83
2023/04/08 05:07:37;;;;;;;31.57;20.33;;;4.60;99.90;;;;;;5041565;28;20033;-83
2023/04/08 05:10:04;;;;;;;25.97;18.77;;;4.60;99.90;;;;;;5040606;28;20029;-83
2023/04/08 05:12:30;;;;;;;26.10;19.60;;;4.70;99.90;;;;;;5041748;28;20041;-84
2023/04/08 05:14:58;;;;;;;26.63;19.77;;;4.80;99.90;;;;;;5041149;28;20166;-82
2023/04/08 05:17:24;;;;;;;25.33;19.03;;;4.80;99.90;;;;;;5040752;28;20102;-83
2023/04/08 05:19:50;;;;;;;25.50;18.27;;;4.90;99.90;;;;;;5040769;28;20049;-85
2023/04/08 05:22:16;;;;;;;24.43;18.40;;;5.00;99.90;;;;;;5040049;28;20040;-84
2023/04/08 05:24:41;;;;;;;25.83;18.70;;;5.00;99.90;;;;;;5040978;28;20017;-84
2023/04/08 05:27:07;;;;;;;27.53;19.10;;;5.10;99.90;;;;;;5039729;28;20037;-83
2023/04/08 05:29:33;;;;;;;27.13;19.07;;;5.10;99.90;;;;;;5040550;28;20059;-84
2023/04/08 05:31:58;;;;;;;28.53;18.83;;;5.10;99.90;;;;;;5038210;28;20037;-84
2023/04/08 05:34:24;;;;;;;24.60;18.00;;;5.20;99.90;;;;;;5039697;28;20021;-85
2023/04/08 05:36:50;;;;;;;26.70;18.93;;;5.20;99.90;;;;;;5039251;28;20041;-85
2023/04/08 05:39:17;;;;;;;25.93;18.73;;;5.30;99.90;;;;;;5039690;28;20449;-83
2023/04/08 05:41:43;;;;;;;24.30;18.43;;;5.30;99.90;;;;;;5039530;28;20063;-84
2023/04/08 05:44:09;;;;;;;24.87;19.03;;;5.40;99.90;;;;;;5037736;28;20033;-84
2023/04/08 05:46:34;;;;;;;24.93;17.93;;;5.40;99.90;;;;;;5040767;28;20033;-84
2023/04/08 05:49:00;;;;;;;22.40;16.77;;;5.50;99.90;;;;;;5038515;28;20028;-84
2023/04/08 05:51:26;;;;;;;21.50;16.83;;;5.60;99.90;;;;;;5042624;28;20093;-85
2023/04/08 05:53:51;;;;;;;22.63;17.13;;;5.60;99.90;;;;;;5040999;28;20045;-83
2023/04/08 05:56:17;;;;;;;23.53;18.03;;;5.70;99.90;;;;;;5042774;28;20037;-83
2023/04/08 05:58:43;;;;;;;23.47;17.47;;;5.70;99.90;;;;;;5038640;28;20041;-84
2023/04/08 06:01:08;;;;;;;24.00;18.07;;;5.80;99.90;;;;;;5039970;28;20044;-84
2023/04/08 06:03:34;;;;;;;24.70;17.27;;;5.90;99.90;;;;;;5040907;28;20039;-84
2023/04/08 06:06:02;;;;;;;23.20;17.67;;;5.90;99.90;;;;;;5041516;28;20036;-85
2023/04/08 06:08:30;;;;;;;21.87;17.07;;;6.00;99.90;;;;;;5022636;28;20554;-85
2023/04/08 06:10:56;;;;;;;23.33;16.47;;;6.00;99.90;;;;;;5021292;28;20025;-83
2023/04/08 06:13:24;;;;;;;22.73;17.67;;;6.10;99.90;;;;;;5039043;28;20063;-85
2023/04/08 06:15:49;;;;;;;22.83;18.27;;;6.10;99.90;;;;;;5039043;28;20480;-86
2023/04/08 06:18:18;;;;;;;23.20;17.23;;;6.20;99.90;;;;;;5039241;28;20040;-84
2023/04/08 06:20:44;;;;;;;21.93;17.27;;;6.20;99.90;;;;;;5040258;28;20341;-84
2023/04/08 06:23:10;;;;;;;23.00;18.13;;;6.20;99.90;;;;;;5041431;28;20046;-86
2023/04/08 06:25:36;;;;;;;24.97;18.30;;;6.30;99.90;;;;;;5037201;28;20029;-84
2023/04/08 06:28:01;;;;;;;23.27;17.37;;;6.30;99.90;;;;;;5039396;28;20064;-84
2023/04/08 06:30:27;;;;;;;22.07;17.83;;;6.30;99.90;;;;;;5040894;28;20033;-86
2023/04/08 06:32:52;;;;;;;24.83;17.83;;;6.30;99.90;;;;;;5041220;28;20033;-84
2023/04/08 06:35:18;;;;;;;21.93;16.70;;;6.30;99.90;;;;;;5037795;28;20599;-84
2023/04/08 06:37:43;;;;;;;19.90;16.23;;;6.30;99.90;;;;;;5038537;28;20033;-85
2023/04/08 06:40:09;;;;;;;19.70;16.47;;;6.40;99.90;;;;;;5039148;28;20039;-82
2023/04/08 06:42:37;;;;;;;22.10;17.60;;;6.30;99.90;;;;;;5038043;28;20090;-83
2023/04/08 06:45:03;;;;;;;22.57;16.70;;;6.40;99.90;;;;;;5042963;28;20029;-83
2023/04/08 06:47:28;;;;;;;22.63;17.30;;;6.40;99.90;;;;;;5039924;28;20057;-85
2023/04/08 06:49:54;;;;;;;23.53;17.73;;;6.50;99.90;;;;;;5036523;28;20088;-84
2023/04/08 06:52:20;;;;;;;24.07;18.93;;;6.50;99.90;;;;;;5035492;28;20087;-84
2023/04/08 06:54:45;;;;;;;24.90;17.90;;;6.50;99.90;;;;;;5036352;28;20121;-84
2023/04/08 06:57:11;;;;;;;24.37;17.93;;;6.60;99.90;;;;;;5040359;28;20033;-75
2023/04/08 06:59:37;;;;;;;25.13;18.83;;;6.60;99.90;;;;;;5037524;28;20030;-84
2023/04/08 07:02:02;;;;;;;22.33;18.10;;;6.60;99.90;;;;;;5035963;28;20453;-83
2023/04/08 07:04:28;;;;;;;24.93;19.17;;;6.60;99.90;;;;;;5037574;28;20025;-85
2023/04/08 07:06:53;;;;;;;24.13;19.00;;;6.60;99.90;;;;;;5036191;28;20054;-85
2023/04/08 07:09:19;;;;;;;24.70;18.60;;;6.60;99.90;;;;;;5037317;28;20052;-86
2023/04/08 07:11:45;;;;;;;23.13;18.90;;;6.60;99.90;;;;;;5038335;28;20065;-86
2023/04/08 07:14:11;;;;;;;23.60;18.17;;;6.70;99.90;;;;;;5019598;28;20049;-81
2023/04/08 07:16:36;;;;;;;23.47;18.13;;;6.70;99.90;;;;;;5031532;28;20469;-79
2023/04/08 07:19:02;;;;;;;23.73;18.03;;;6.70;99.90;;;;;;5031728;28;20115;-80
2023/04/08 07:21:27;;;;;;;23.73;18.20;;;6.70;99.90;;;;;;5031459;28;20028;-79
2023/04/08 07:23:53;;;;;;;24.93;19.10;;;6.80;99.90;;;;;;5029065;28;20148;-79
2023/04/08 07:26:18;;;;;;;23.73;17.73;;;6.80;99.90;;;;;;5033721;28;20070;-80
2023/04/08 07:28:44;;;;;;;21.37;17.43;;;6.90;99.90;;;;;;5034956;28;20107;-80
2023/04/08 07:31:14;;;;;;;23.13;18.43;;;6.90;99.90;;;;;;5039290;28;20061;-84
2023/04/08 07:33:43;;;;;;;24.27;17.97;;;6.90;99.90;;;;;;5042898;28;20041;-84
2023/04/08 07:36:10;;;;;;;23.60;17.97;;;6.90;99.90;;;;;;5040184;28;20091;-84
2023/04/08 07:38:37;;;;;;;22.63;17.63;;;7.00;99.90;;;;;;5040849;28;20029;-83
2023/04/08 07:41:03;;;;;;;22.87;16.73;;;7.00;99.90;;;;;;5039460;28;20036;-84
2023/04/08 07:43:31;;;;;;;19.93;15.67;;;7.00;99.90;;;;;;5037590;28;20030;-84
2023/04/08 07:46:03;;;;;;;18.33;14.93;;;7.00;99.90;;;;;;5017285;28;20063;-84
2023/04/08 07:48:30;;;;;;;19.13;15.97;;;7.00;99.90;;;;;;5037126;28;20465;-84
2023/04/08 07:50:56;;;;;;;19.33;15.47;;;7.10;99.90;;;;;;5037245;28;20530;-83
2023/04/08 07:53:25;;;;;;;17.27;14.23;;;7.10;99.90;;;;;;5036291;28;20037;-85
2023/04/08 07:55:51;;;;;;;26.17;17.80;;;7.20;99.90;;;;;;5019406;28;20093;-84
2023/04/08 07:58:17;;;;;;;19.70;15.40;;;7.20;99.90;;;;;;5039531;28;20074;-84
2023/04/08 08:00:42;;;;;;;18.37;13.30;;;7.20;99.90;;;;;;5037962;28;20038;-85
2023/04/08 08:03:08;;;;;;;17.67;13.20;;;7.20;99.90;;;;;;5037968;28;20052;-83
2023/04/08 08:05:35;;;;;;;17.43;14.23;;;7.20;99.90;;;;;;5036403;28;20033;-84
2023/04/08 08:08:00;;;;;;;18.10;13.20;;;7.20;99.90;;;;;;5018446;28;20089;-83
2023/04/08 08:10:26;;;;;;;16.80;12.87;;;7.20;99.90;;;;;;5037104;28;20021;-84
2023/04/08 08:12:52;;;;;;;16.37;12.30;;;7.20;99.90;;;;;;5038398;28;20109;-85
2023/04/08 08:15:17;;;;;;;16.60;12.80;;;7.10;99.90;;;;;;5041070;23;20097;-74
2023/04/08 08:17:43;;;;;;;16.07;12.00;;;7.10;99.90;;;;;;5010268;28;20240;-76
2023/04/08 08:20:09;;;;;;;19.13;13.03;;;7.20;99.90;;;;;;5007631;28;20549;-75
2023/04/08 08:22:34;;;;;;;17.07;12.70;;;7.20;99.90;;;;;;5006601;28;20750;-75
2023/04/08 08:25:00;;;;;;;16.57;12.17;;;7.20;99.90;;;;;;5009156;28;20116;-75
2023/04/08 08:27:26;;;;;;;19.03;12.27;;;7.30;99.90;;;;;;5008174;28;20037;-75
2023/04/08 08:29:51;;;;;;;14.97;12.00;;;7.20;99.90;;;;;;5009146;28;20026;-74
2023/04/08 08:32:17;;;;;;;18.33;13.03;;;7.20;99.90;;;;;;5008270;28;20513;-74
2023/04/08 08:34:43;;;;;;;15.70;12.37;;;7.20;99.90;;;;;;5009994;28;20389;-74
2023/04/08 08:37:09;;;;;;;14.00;11.30;;;7.20;99.90;;;;;;5009350;28;20021;-74
2023/04/08 08:39:34;;;;;;;17.10;12.07;;;7.20;99.90;;;;;;5008602;28;20029;-74
2023/04/08 08:42:00;;;;;;;15.83;12.63;;;7.20;99.90;;;;;;5008702;28;20564;-74
2023/04/08 08:44:26;;;;;;;22.87;14.67;;;7.10;99.90;;;;;;5009890;28;20197;-74
2023/04/08 08:46:52;;;;;;;15.73;12.57;;;7.10;99.90;;;;;;5008349;28;20057;-73
2023/04/08 08:49:18;;;;;;;22.83;14.47;;;7.10;99.90;;;;;;5008206;28;20097;-73
2023/04/08 08:51:47;;;;;;;17.47;14.03;;;7.00;99.90;;;;;;5008146;28;20454;-73
2023/04/08 08:54:14;;;;;;;21.00;14.63;;;6.90;99.90;;;;;;5007380;28;20030;-73
2023/04/08 08:56:41;;;;;;;20.67;14.83;;;6.80;99.90;;;;;;5007687;28;20053;-74
2023/04/08 08:59:08;;;;;;;18.43;12.93;;;6.60;99.90;;;;;;5006068;28;20034;-74
2023/04/08 09:01:40;;;;;;;16.00;12.37;;;6.40;99.90;;;;;;5004904;28;20571;-73
2023/04/08 09:04:06;;;;;;;18.10;12.13;;;6.30;99.90;;;;;;5009176;28;20133;-74
2023/04/08 09:06:32;;;;;;;17.47;12.30;;;6.20;99.90;;;;;;5008174;28;20823;-74
2023/04/08 09:08:57;;;;;;;15.23;11.13;;;6.20;99.90;;;;;;5008875;28;20031;-74
2023/04/08 09:11:23;;;;;;;14.77;11.30;;;6.10;99.90;;;;;;5008250;28;20026;-74
2023/04/08 09:13:49;;;;;;;15.30;11.70;;;6.10;99.90;;;;;;5008596;28;20038;-74
2023/04/08 09:16:19;;;;;;;16.13;12.00;;;6.00;99.90;;;;;;5009116;28;20088;-74
2023/04/08 09:18:47;;;;;;;19.73;13.03;;;5.90;99.90;;;;;;5008728;28;20385;-74
2023/04/08 09:21:15;;;;;;;14.60;11.43;;;5.90;99.90;;;;;;5006954;28;20034;-74
2023/04/08 09:23:42;;;;;;;16.50;12.17;;;5.80;99.90;;;;;;5007507;28;20698;-74
2023/04/08 09:26:10;;;;;;;15.63;11.93;;;5.80;99.90;;;;;;5009395;28;20022;-74
2023/04/08 09:28:36;;;;;;;18.27;13.13;;;5.80;99.90;;;;;;5009208;28;20022;-74
2023/04/08 09:31:16;;;;;;;17.50;12.97;;;5.80;99.90;;;;;;5009600;28;20046;-73
2023/04/08 09:33:42;;;;;;;18.20;12.80;;;5.80;99.90;;;;;;5008925;28;20084;-74
2023/04/08 09:36:07;;;;;;;16.93;13.20;;;5.80;99.90;;;;;;5009329;28;20034;-74
2023/04/08 09:38:33;;;;;;;18.10;12.53;;;5.90;99.90;;;;;;5007750;28;20116;-74
2023/04/08 09:41:05;;;;;;;19.70;13.30;;;5.90;99.90;;;;;;5007407;28;20112;-74
2023/04/08 09:43:32;;;;;;;20.10;13.40;;;5.90;99.90;;;;;;5007992;28;20034;-74
2023/04/08 09:46:01;;;;;;;17.43;13.50;;;6.00;99.90;;;;;;5008257;28;20034;-74
2023/04/08 09:48:37;;;;;;;19.37;13.70;;;6.00;99.90;;;;;;5007608;28;20034;-74
2023/04/08 09:51:03;;;;;;;20.97;14.67;;;6.10;99.90;;;;;;5005880;28;20038;-74
2023/04/08 09:53:40;;;;;;;20.77;14.40;;;6.10;99.90;;;;;;5006917;28;20092;-74
2023/04/08 09:56:11;;;;;;;18.80;14.43;;;6.10;99.90;;;;;;5007354;28;20026;-74
2023/04/08 09:58:58;;;;;;;19.87;14.87;;;6.20;99.90;;;;;;5007423;28;20030;-74
2023/04/08 10:01:39;;;;;;;19.33;15.07;;;6.20;99.90;;;;;;5006102;28;20033;-74
2023/04/08 10:04:08;;;;;;;20.67;15.10;;;6.20;99.90;;;;;;5008468;28;20022;-74
2023/04/08 10:06:35;;;;;;;23.27;15.40;;;6.40;99.90;;;;;;5007289;28;20033;-74
2023/04/08 10:09:03;;;;;;;21.20;14.70;;;6.40;99.90;;;;;;5007278;28;20612;-74
2023/04/08 10:11:29;;;;;;;18.40;14.33;;;6.50;99.90;;;;;;5007474;28;20144;-74
2023/04/08 10:13:55;;;;;;;19.10;14.83;;;6.70;99.90;;;;;;5006960;28;20033;-74
2023/04/08 10:16:24;;;;;;;20.27;15.03;;;6.80;99.90;;;;;;5007950;28;20071;-74
2023/04/08 10:18:54;;;;;;;18.20;14.23;;;7.00;99.90;;;;;;5005232;28;20038;-75
2023/04/08 10:21:38;;;;;;;20.73;14.63;;;7.30;99.90;;;;;;5002167;28;20378;-74
2023/04/08 10:24:10;;;;;;;19.80;14.53;;;7.40;99.90;;;;;;5004953;28;20026;-74
2023/04/08 10:26:37;;;;;;;19.77;14.73;;;7.60;99.90;;;;;;5003785;28;20029;-75
2023/04/08 10:29:18;;;;;;;20.50;14.90;;;7.60;99.90;;;;;;5005053;28;20545;-75
2023/04/08 10:31:45;;;;;;;18.20;14.03;;;7.80;99.90;;;;;;5004909;28;20026;-75
2023/04/08 10:34:20;;;;;;;21.63;15.23;;;7.90;99.90;;;;;;5003755;28;20810;-74
2023/04/08 10:36:46;;;;;;;;;;;8.00;99.90;;;;;;5004888;28;20156;-74
2023/04/08 10:39:13;;;;;;;19.07;14.33;;;8.10;99.90;;;;;;5004326;28;19921;-74
2023/04/08 10:41:46;;;;;;;19.67;14.50;;;8.20;99.90;;;;;;5004280;28;20037;-75
2023/04/08 10:44:19;;;;;;;17.23;14.00;;;8.20;99.90;;;;;;5006940;28;20485;-74
2023/04/08 10:46:45;;;;;;;18.13;15.17;;;8.20;99.90;;;;;;5004938;28;20022;-74
2023/04/08 10:49:12;;;;;;;18.47;14.47;;;8.00;99.90;;;;;;5004687;28;20165;-74
2023/04/08 10:51:38;;;;;;;20.37;15.33;;;7.80;99.90;;;;;;5003616;28;21214;-74
2023/04/08 10:54:08;;;;;;;20.40;16.07;;;7.60;99.90;;;;;;5005410;28;20147;-74
2023/04/08 10:56:48;;;;;;;19.70;14.83;;;7.40;99.90;;;;;;5005084;28;20032;-74
2023/04/08 10:59:15;;;;;;;21.07;15.83;;;7.30;99.90;;;;;;5005106;28;20402;-74
2023/04/08 11:01:43;;;;;;;21.23;16.33;;;7.20;99.90;;;;;;5006269;28;20429;-74
2023/04/08 11:04:13;;;;;;;21.27;16.40;;;7.10;99.90;;;;;;5006251;28;20069;-74
2023/04/08 11:06:41;;;;;;;21.47;16.30;;;7.00;99.90;;;;;;5006704;28;20029;-74
2023/04/08 11:09:07;;;;;;;20.40;16.13;;;6.90;99.90;;;;;;5006080;28;20072;-74
2023/04/08 11:11:33;;;;;;;30.27;21.53;;;6.80;99.90;;;;;;5004040;28;20029;-74
2023/04/08 11:14:00;;;;;;;19.57;14.83;;;6.80;99.90;;;;;;5006684;28;20556;-74
2023/04/08 11:16:26;;;;;;;20.67;16.80;;;6.80;99.90;;;;;;5006203;28;20086;-74
2023/04/08 11:18:52;;;;;;;21.53;16.77;;;6.70;99.90;;;;;;5006604;28;20021;-74
2023/04/08 11:21:18;;;;;;;20.57;15.33;;;6.70;99.90;;;;;;5006064;28;20053;-74
2023/04/08 11:23:44;;;;;;;20.40;15.60;;;6.70;99.90;;;;;;5005993;28;20029;-74
2023/04/08 11:26:10;;;;;;;20.83;14.87;;;6.70;99.90;;;;;;5006395;28;20029;-74
2023/04/08 11:28:36;;;;;;;17.33;13.80;;;6.70;99.90;;;;;;5006114;28;20038;-74
2023/04/08 11:31:03;;;;;;;17.97;14.07;;;6.70;99.90;;;;;;5006065;28;20026;-74
2023/04/08 11:33:31;;;;;;;17.80;14.67;;;6.70;99.90;;;;;;5006262;28;20064;-74
2023/04/08 11:35:59;;;;;;;21.20;14.77;;;6.60;99.90;;;;;;5006867;28;20045;-74
2023/04/08 11:38:25;;;;;;;23.10;14.97;;;6.70;99.90;;;;;;5006273;28;20053;-74
2023/04/08 11:40:58;;;;;;;30.90;23.47;;;6.60;99.90;;;;;;5005727;28;20149;-73
2023/04/08 11:43:25;;;;;;;24.37;19.40;;;6.70;99.90;;;;;;5006078;28;20034;-73
2023/04/08 11:45:50;;;;;;;23.50;17.23;;;6.70;99.90;;;;;;5005894;28;20398;-73
2023/04/08 11:48:17;;;;;;;20.97;16.33;;;6.70;99.90;;;;;;5006423;28;20034;-73
2023/04/08 11:50:43;;;;;;;20.37;15.53;;;6.70;99.90;;;;;;5005818;28;20029;-73
2023/04/08 11:53:24;;;;;;;20.40;15.50;;;6.70;99.90;;;;;;5005775;28;20033;-73
2023/04/08 11:55:50;;;;;;;20.53;15.20;;;6.70;99.90;;;;;;5006394;28;20041;-74
2023/04/08 11:58:16;;;;;;;17.73;14.93;;;6.70;99.90;;;;;;5007459;28;20030;-74
2023/04/08 12:00:42;;;;;;;18.03;13.47;;;6.60;99.90;;;;;;5010165;28;20413;-73
2023/04/08 12:03:08;;;;;;;16.97;13.50;;;6.70;99.90;;;;;;5009923;28;20042;-74
2023/04/08 12:05:34;;;;;;;17.90;13.87;;;6.60;99.90;;;;;;5010464;28;20032;-74
2023/04/08 12:08:00;;;;;;;18.07;14.57;;;6.60;99.90;;;;;;5010449;28;20042;-73
2023/04/08 12:10:25;;;;;;;15.50;12.90;;;6.50;99.90;;;;;;5009920;28;20030;-73
2023/04/08 12:12:51;;;;;;;18.20;14.80;;;6.50;99.90;;;;;;5009483;28;20778;-73
2023/04/08 12:15:16;;;;;;;15.43;12.77;;;6.40;99.90;;;;;;5010138;28;20091;-74
2023/04/08 12:17:42;;;;;;;17.50;13.63;;;6.30;99.90;;;;;;5009978;28;20072;-73
2023/04/08 12:20:09;;;;;;;18.83;14.30;;;6.30;99.90;;;;;;5009487;28;20235;-73
2023/04/08 12:22:35;;;;;;;19.83;13.63;;;6.40;99.90;;;;;;5009345;28;21551;-74
2023/04/08 12:25:02;;;;;;;17.57;13.97;;;6.30;99.90;;;;;;5009976;28;20564;-74
2023/04/08 12:27:28;;;;;;;18.27;13.30;;;6.30;99.90;;;;;;5009851;28;20030;-73
2023/04/08 12:29:54;;;;;;;17.63;13.50;;;6.40;99.90;;;;;;5009487;28;20030;-74
2023/04/08 12:32:20;;;;;;;16.40;14.40;;;6.30;99.90;;;;;;5009298;28;20029;-74
2023/04/08 12:34:46;;;;;;;17.27;13.83;;;6.30;99.90;;;;;;5009414;28;20084;-74
2023/04/08 12:37:11;;;;;;;19.20;15.40;;;6.20;99.90;;;;;;5009456;28;20112;-73